Terminal Aerodrome Forecast
Issued by NWS Spokane, WA

Home | Current Version | Previous Version | Text Only | Print | Product List | Glossary On
Versions: 1 2 3 4 5 6 7 8 9 10 11 12 13 14 15 16
000
FTUS46 KOTX 221146 CCA
TAFLWS
TAF COR
KLWS 221146Z 2212/2312 12010KT P6SM SCT090 BKN150
     FM221900 10012KT P6SM BKN080 OVC100
     FM222200 13008KT P6SM -SHRA OVC050
     FM230300 13003KT P6SM SCT080 BKN150=

USA.gov is the U.S. government's official web portal to all federal, state and local government web resources and services.